sensor_id;sensor_type;location;lat;lon;timestamp;P1;P2;P0
44871;PMS7003;30602;51.060;17.226;2023-05-16T00:01:57;33;31;23
44871;PMS7003;30602;51.060;17.226;2023-05-16T00:05:39;32;28;20
44871;PMS7003;30602;51.060;17.226;2023-05-16T00:09:02;35;32;23
44871;PMS7003;30602;51.060;17.226;2023-05-16T00:12:52;37;34;24
44871;PMS7003;30602;51.060;17.226;2023-05-16T00:21:11;42;36;24
44871;PMS7003;30602;51.060;17.226;2023-05-16T00:24:59;39;36;22
44871;PMS7003;30602;51.060;17.226;2023-05-16T00:28:27;40;35;24
44871;PMS7003;30602;51.060;17.226;2023-05-16T00:32:06;37;33;24
44871;PMS7003;30602;51.060;17.226;2023-05-16T00:36:06;43;36;23
44871;PMS7003;30602;51.060;17.226;2023-05-16T00:39:41;35;32;24
44871;PMS7003;30602;51.060;17.226;2023-05-16T00:43:22;37;34;23
44871;PMS7003;30602;51.060;17.226;2023-05-16T00:47:02;32;32;22
44871;PMS7003;30602;51.060;17.226;2023-05-16T00:51:12;46;36;24
44871;PMS7003;30602;51.060;17.226;2023-05-16T00:55:19;39;35;23
44871;PMS7003;30602;51.060;17.226;2023-05-16T00:59:23;36;33;23
44871;PMS7003;30602;51.060;17.226;2023-05-16T01:02:54;40;34;24
44871;PMS7003;30602;51.060;17.226;2023-05-16T01:06:35;44;33;22
44871;PMS7003;30602;51.060;17.226;2023-05-16T01:10:19;39;35;24
44871;PMS7003;30602;51.060;17.226;2023-05-16T01:17:49;35;31;21
44871;PMS7003;30602;51.060;17.226;2023-05-16T01:21:43;33;31;22
44871;PMS7003;30602;51.060;17.226;2023-05-16T01:29:31;33;29;21
44871;PMS7003;30602;51.060;17.226;2023-05-16T01:33:27;38;32;21
44871;PMS7003;30602;51.060;17.226;2023-05-16T01:45:33;34;30;23
44871;PMS7003;30602;51.060;17.226;2023-05-16T01:49:34;34;31;21
44871;PMS7003;30602;51.060;17.226;2023-05-16T01:53:07;39;31;21
44871;PMS7003;30602;51.060;17.226;2023-05-16T01:56:34;34;29;21
44871;PMS7003;30602;51.060;17.226;2023-05-16T01:59:58;33;29;21
44871;PMS7003;30602;51.060;17.226;2023-05-16T02:03:21;29;26;20
44871;PMS7003;30602;51.060;17.226;2023-05-16T02:07:01;35;32;22
44871;PMS7003;30602;51.060;17.226;2023-05-16T02:10:44;31;29;20
44871;PMS7003;30602;51.060;17.226;2023-05-16T02:14:39;41;34;22
44871;PMS7003;30602;51.060;17.226;2023-05-16T02:18:37;38;34;21
44871;PMS7003;30602;51.060;17.226;2023-05-16T02:22:32;36;31;22
44871;PMS7003;30602;51.060;17.226;2023-05-16T02:26:07;31;27;20
44871;PMS7003;30602;51.060;17.226;2023-05-16T02:30:18;37;32;20
44871;PMS7003;30602;51.060;17.226;2023-05-16T02:34:44;31;26;20
44871;PMS7003;30602;51.060;17.226;2023-05-16T02:42:25;33;28;21
44871;PMS7003;30602;51.060;17.226;2023-05-16T02:45:56;32;27;21
44871;PMS7003;30602;51.060;17.226;2023-05-16T02:49:17;30;29;20
44871;PMS7003;30602;51.060;17.226;2023-05-16T02:53:26;34;29;20
44871;PMS7003;30602;51.060;17.226;2023-05-16T02:57:28;30;27;20
44871;PMS7003;30602;51.060;17.226;2023-05-16T03:01:06;32;28;19
44871;PMS7003;30602;51.060;17.226;2023-05-16T03:04:30;28;26;18
44871;PMS7003;30602;51.060;17.226;2023-05-16T03:08:19;32;29;18
44871;PMS7003;30602;51.060;17.226;2023-05-16T03:11:59;34;32;21
44871;PMS7003;30602;51.060;17.226;2023-05-16T03:15:40;30;30;22
44871;PMS7003;30602;51.060;17.226;2023-05-16T03:19:38;38;29;22
44871;PMS7003;30602;51.060;17.226;2023-05-16T03:23:16;34;29;21
44871;PMS7003;30602;51.060;17.226;2023-05-16T03:26:53;37;33;21
44871;PMS7003;30602;51.060;17.226;2023-05-16T03:30:35;34;28;20
44871;PMS7003;30602;51.060;17.226;2023-05-16T03:34:43;31;27;19
44871;PMS7003;30602;51.060;17.226;2023-05-16T03:38:08;34;31;20
44871;PMS7003;30602;51.060;17.226;2023-05-16T03:41:45;34;31;21
44871;PMS7003;30602;51.060;17.226;2023-05-16T03:45:57;30;27;21
44871;PMS7003;30602;51.060;17.226;2023-05-16T03:49:39;34;30;21
44871;PMS7003;30602;51.060;17.226;2023-05-16T03:53:36;34;32;23
44871;PMS7003;30602;51.060;17.226;2023-05-16T03:57:24;36;31;20
44871;PMS7003;30602;51.060;17.226;2023-05-16T04:01:24;34;31;20
44871;PMS7003;30602;51.060;17.226;2023-05-16T04:05:08;34;31;21
44871;PMS7003;30602;51.060;17.226;2023-05-16T04:08:42;50;38;25
44871;PMS7003;30602;51.060;17.226;2023-05-16T04:12:59;35;31;23
44871;PMS7003;30602;51.060;17.226;2023-05-16T04:16:52;34;32;21
44871;PMS7003;30602;51.060;17.226;2023-05-16T04:20:23;33;30;22
44871;PMS7003;30602;51.060;17.226;2023-05-16T04:24:18;31;27;21
44871;PMS7003;30602;51.060;17.226;2023-05-16T04:28:13;30;29;20
44871;PMS7003;30602;51.060;17.226;2023-05-16T04:31:56;36;32;20
44871;PMS7003;30602;51.060;17.226;2023-05-16T04:35:47;29;28;20
44871;PMS7003;30602;51.060;17.226;2023-05-16T04:39:41;31;26;19
44871;PMS7003;30602;51.060;17.226;2023-05-16T04:43:28;38;32;20
44871;PMS7003;30602;51.060;17.226;2023-05-16T04:47:55;27;27;20
44871;PMS7003;30602;51.060;17.226;2023-05-16T04:51:51;32;29;20
44871;PMS7003;30602;51.060;17.226;2023-05-16T04:55:27;29;25;19
44871;PMS7003;30602;51.060;17.226;2023-05-16T04:58:57;27;23;18
44871;PMS7003;30602;51.060;17.226;2023-05-16T05:02:16;29;26;19
44871;PMS7003;30602;51.060;17.226;2023-05-16T05:06:06;29;25;19
44871;PMS7003;30602;51.060;17.226;2023-05-16T05:09:44;32;27;19
44871;PMS7003;30602;51.060;17.226;2023-05-16T05:13:26;32;27;19
44871;PMS7003;30602;51.060;17.226;2023-05-16T05:17:09;25;23;17
44871;PMS7003;30602;51.060;17.226;2023-05-16T05:20:54;32;27;18
44871;PMS7003;30602;51.060;17.226;2023-05-16T05:24:21;24;23;18
44871;PMS7003;30602;51.060;17.226;2023-05-16T05:31:48;31;28;18
44871;PMS7003;30602;51.060;17.226;2023-05-16T05:35:14;25;22;15
44871;PMS7003;30602;51.060;17.226;2023-05-16T05:39:03;24;24;17
44871;PMS7003;30602;51.060;17.226;2023-05-16T05:42:26;24;21;17
44871;PMS7003;30602;51.060;17.226;2023-05-16T05:46:44;26;25;17
44871;PMS7003;30602;51.060;17.226;2023-05-16T05:50:31;28;26;20
44871;PMS7003;30602;51.060;17.226;2023-05-16T05:54:05;27;23;19
44871;PMS7003;30602;51.060;17.226;2023-05-16T05:58:20;30;26;19
44871;PMS7003;30602;51.060;17.226;2023-05-16T06:01:58;32;24;17
44871;PMS7003;30602;51.060;17.226;2023-05-16T06:05:48;28;27;19
44871;PMS7003;30602;51.060;17.226;2023-05-16T06:09:11;26;23;19
44871;PMS7003;30602;51.060;17.226;2023-05-16T06:12:32;27;24;18
44871;PMS7003;30602;51.060;17.226;2023-05-16T06:16:15;30;25;19
44871;PMS7003;30602;51.060;17.226;2023-05-16T06:19:37;25;22;17
44871;PMS7003;30602;51.060;17.226;2023-05-16T06:24:02;23;21;17
44871;PMS7003;30602;51.060;17.226;2023-05-16T06:27:22;22;20;15
44871;PMS7003;30602;51.060;17.226;2023-05-16T06:31:11;25;23;17
44871;PMS7003;30602;51.060;17.226;2023-05-16T06:35:03;27;24;18
44871;PMS7003;30602;51.060;17.226;2023-05-16T06:38:24;26;24;18
44871;PMS7003;30602;51.060;17.226;2023-05-16T06:43:08;27;23;18
44871;PMS7003;30602;51.060;17.226;2023-05-16T06:47:22;26;23;18
44871;PMS7003;30602;51.060;17.226;2023-05-16T06:50:42;24;23;19
44871;PMS7003;30602;51.060;17.226;2023-05-16T06:54:18;24;24;17
44871;PMS7003;30602;51.060;17.226;2023-05-16T06:57:57;22;21;17
44871;PMS7003;30602;51.060;17.226;2023-05-16T07:01:40;24;21;16
44871;PMS7003;30602;51.060;17.226;2023-05-16T07:05:44;26;25;19
44871;PMS7003;30602;51.060;17.226;2023-05-16T07:09:27;29;27;18
44871;PMS7003;30602;51.060;17.226;2023-05-16T07:13:16;21;19;16
44871;PMS7003;30602;51.060;17.226;2023-05-16T07:16:51;28;26;19
44871;PMS7003;30602;51.060;17.226;2023-05-16T07:20:38;25;23;17
44871;PMS7003;30602;51.060;17.226;2023-05-16T07:23:59;27;26;18
44871;PMS7003;30602;51.060;17.226;2023-05-16T07:27:31;27;22;16
44871;PMS7003;30602;51.060;17.226;2023-05-16T07:31:26;30;27;19
44871;PMS7003;30602;51.060;17.226;2023-05-16T07:34:59;25;23;18
44871;PMS7003;30602;51.060;17.226;2023-05-16T07:38:43;30;27;19
44871;PMS7003;30602;51.060;17.226;2023-05-16T07:42:14;25;23;18
44871;PMS7003;30602;51.060;17.226;2023-05-16T07:46:00;28;27;20
44871;PMS7003;30602;51.060;17.226;2023-05-16T07:49:59;31;26;20
44871;PMS7003;30602;51.060;17.226;2023-05-16T07:53:36;26;23;19
44871;PMS7003;30602;51.060;17.226;2023-05-16T07:57:32;27;26;18
44871;PMS7003;30602;51.060;17.226;2023-05-16T08:01:12;25;24;20
44871;PMS7003;30602;51.060;17.226;2023-05-16T08:04:51;28;25;17
44871;PMS7003;30602;51.060;17.226;2023-05-16T08:08:12;23;23;18
44871;PMS7003;30602;51.060;17.226;2023-05-16T08:11:31;25;24;20
44871;PMS7003;30602;51.060;17.226;2023-05-16T08:15:26;30;22;17
44871;PMS7003;30602;51.060;17.226;2023-05-16T08:18:45;23;22;17
44871;PMS7003;30602;51.060;17.226;2023-05-16T08:22:23;24;24;19
44871;PMS7003;30602;51.060;17.226;2023-05-16T08:26:34;30;28;19
44871;PMS7003;30602;51.060;17.226;2023-05-16T08:30:19;24;22;18
44871;PMS7003;30602;51.060;17.226;2023-05-16T08:33:37;29;25;19
44871;PMS7003;30602;51.060;17.226;2023-05-16T08:37:19;25;24;18
44871;PMS7003;30602;51.060;17.226;2023-05-16T08:41:25;29;27;19
44871;PMS7003;30602;51.060;17.226;2023-05-16T08:44:44;26;26;21
44871;PMS7003;30602;51.060;17.226;2023-05-16T08:48:37;29;25;19
44871;PMS7003;30602;51.060;17.226;2023-05-16T08:52:16;24;22;17
44871;PMS7003;30602;51.060;17.226;2023-05-16T08:56:50;29;25;21
44871;PMS7003;30602;51.060;17.226;2023-05-16T09:00:42;28;24;19
44871;PMS7003;30602;51.060;17.226;2023-05-16T09:04:22;28;27;20
44871;PMS7003;30602;51.060;17.226;2023-05-16T09:07:54;28;24;18
44871;PMS7003;30602;51.060;17.226;2023-05-16T09:12:00;26;22;18
44871;PMS7003;30602;51.060;17.226;2023-05-16T09:17:06;24;19;16
44871;PMS7003;30602;51.060;17.226;2023-05-16T09:20:41;25;22;17
44871;PMS7003;30602;51.060;17.226;2023-05-16T09:24:26;25;25;20
44871;PMS7003;30602;51.060;17.226;2023-05-16T09:27:45;26;25;19
44871;PMS7003;30602;51.060;17.226;2023-05-16T09:35:19;24;23;19
44871;PMS7003;30602;51.060;17.226;2023-05-16T09:39:32;27;25;20
44871;PMS7003;30602;51.060;17.226;2023-05-16T09:43:01;24;21;16
44871;PMS7003;30602;51.060;17.226;2023-05-16T09:46:54;27;19;16
44871;PMS7003;30602;51.060;17.226;2023-05-16T09:50:19;18;18;16
44871;PMS7003;30602;51.060;17.226;2023-05-16T09:53:38;22;19;17
44871;PMS7003;30602;51.060;17.226;2023-05-16T09:57:20;23;23;18
44871;PMS7003;30602;51.060;17.226;2023-05-16T10:00:51;26;23;18
44871;PMS7003;30602;51.060;17.226;2023-05-16T10:04:46;26;25;18
44871;PMS7003;30602;51.060;17.226;2023-05-16T10:08:34;25;22;16
44871;PMS7003;30602;51.060;17.226;2023-05-16T10:12:21;26;21;16
44871;PMS7003;30602;51.060;17.226;2023-05-16T10:16:08;24;23;17
44871;PMS7003;30602;51.060;17.226;2023-05-16T10:19:31;21;20;16
44871;PMS7003;30602;51.060;17.226;2023-05-16T10:23:19;24;22;17
44871;PMS7003;30602;51.060;17.226;2023-05-16T10:28:41;25;22;17
44871;PMS7003;30602;51.060;17.226;2023-05-16T10:32:41;22;19;17
44871;PMS7003;30602;51.060;17.226;2023-05-16T10:36:25;21;18;15
44871;PMS7003;30602;51.060;17.226;2023-05-16T10:39:45;22;20;16
44871;PMS7003;30602;51.060;17.226;2023-05-16T10:43:36;22;22;18
44871;PMS7003;30602;51.060;17.226;2023-05-16T10:48:03;23;22;18
44871;PMS7003;30602;51.060;17.226;2023-05-16T10:55:29;21;20;16
44871;PMS7003;30602;51.060;17.226;2023-05-16T11:03:21;19;19;16
44871;PMS7003;30602;51.060;17.226;2023-05-16T11:07:08;18;18;15
44871;PMS7003;30602;51.060;17.226;2023-05-16T11:10:31;22;20;17
44871;PMS7003;30602;51.060;17.226;2023-05-16T11:14:48;24;22;18
44871;PMS7003;30602;51.060;17.226;2023-05-16T11:18:48;25;22;18
44871;PMS7003;30602;51.060;17.226;2023-05-16T11:26:10;21;20;17
44871;PMS7003;30602;51.060;17.226;2023-05-16T11:29:54;19;18;16
44871;PMS7003;30602;51.060;17.226;2023-05-16T11:37:53;19;18;14
44871;PMS7003;30602;51.060;17.226;2023-05-16T11:41:43;21;21;17
44871;PMS7003;30602;51.060;17.226;2023-05-16T11:45:06;20;17;15
44871;PMS7003;30602;51.060;17.226;2023-05-16T11:52:44;19;17;14
44871;PMS7003;30602;51.060;17.226;2023-05-16T11:56:58;27;23;19
44871;PMS7003;30602;51.060;17.226;2023-05-16T12:00:43;27;25;20
44871;PMS7003;30602;51.060;17.226;2023-05-16T12:04:34;27;24;19
44871;PMS7003;30602;51.060;17.226;2023-05-16T12:07:56;31;29;20
44871;PMS7003;30602;51.060;17.226;2023-05-16T12:11:54;37;29;21
44871;PMS7003;30602;51.060;17.226;2023-05-16T12:15:47;26;25;19
44871;PMS7003;30602;51.060;17.226;2023-05-16T12:19:45;37;31;22
44871;PMS7003;30602;51.060;17.226;2023-05-16T12:23:33;31;30;22
44871;PMS7003;30602;51.060;17.226;2023-05-16T12:27:04;35;29;22
44871;PMS7003;30602;51.060;17.226;2023-05-16T12:30:40;34;31;23
44871;PMS7003;30602;51.060;17.226;2023-05-16T12:34:03;33;30;22
44871;PMS7003;30602;51.060;17.226;2023-05-16T12:37:32;38;33;23
44871;PMS7003;30602;51.060;17.226;2023-05-16T12:41:04;26;22;17
44871;PMS7003;30602;51.060;17.226;2023-05-16T12:44:28;31;28;21
44871;PMS7003;30602;51.060;17.226;2023-05-16T12:48:22;29;28;21
44871;PMS7003;30602;51.060;17.226;2023-05-16T12:52:19;33;30;21
44871;PMS7003;30602;51.060;17.226;2023-05-16T12:56:38;36;30;20
44871;PMS7003;30602;51.060;17.226;2023-05-16T13:01:00;35;30;21
44871;PMS7003;30602;51.060;17.226;2023-05-16T13:05:16;32;30;20
44871;PMS7003;30602;51.060;17.226;2023-05-16T13:09:11;38;31;22
44871;PMS7003;30602;51.060;17.226;2023-05-16T13:13:08;40;33;23
44871;PMS7003;30602;51.060;17.226;2023-05-16T13:16:47;44;35;24
44871;PMS7003;30602;51.060;17.226;2023-05-16T13:20:18;34;30;22
44871;PMS7003;30602;51.060;17.226;2023-05-16T13:23:45;39;34;22
44871;PMS7003;30602;51.060;17.226;2023-05-16T13:27:16;35;31;22
44871;PMS7003;30602;51.060;17.226;2023-05-16T13:31:01;35;33;22
44871;PMS7003;30602;51.060;17.226;2023-05-16T13:34:20;33;32;22
44871;PMS7003;30602;51.060;17.226;2023-05-16T13:38:05;38;33;22
44871;PMS7003;30602;51.060;17.226;2023-05-16T13:41:34;42;35;23
44871;PMS7003;30602;51.060;17.226;2023-05-16T13:45:52;33;31;20
44871;PMS7003;30602;51.060;17.226;2023-05-16T13:49:31;39;33;23
44871;PMS7003;30602;51.060;17.226;2023-05-16T13:52:55;40;32;21
44871;PMS7003;30602;51.060;17.226;2023-05-16T13:56:17;36;31;22
44871;PMS7003;30602;51.060;17.226;2023-05-16T14:00:00;36;33;22
44871;PMS7003;30602;51.060;17.226;2023-05-16T14:04:14;39;34;23
44871;PMS7003;30602;51.060;17.226;2023-05-16T14:07:37;34;30;21
44871;PMS7003;30602;51.060;17.226;2023-05-16T14:11:52;35;31;21
44871;PMS7003;30602;51.060;17.226;2023-05-16T14:15:12;31;29;21
44871;PMS7003;30602;51.060;17.226;2023-05-16T14:18:57;38;31;20
44871;PMS7003;30602;51.060;17.226;2023-05-16T14:23:36;35;29;21
44871;PMS7003;30602;51.060;17.226;2023-05-16T14:26:58;42;34;24
44871;PMS7003;30602;51.060;17.226;2023-05-16T14:31:13;35;31;23
44871;PMS7003;30602;51.060;17.226;2023-05-16T14:35:07;42;35;23
44871;PMS7003;30602;51.060;17.226;2023-05-16T14:38:51;43;34;22
44871;PMS7003;30602;51.060;17.226;2023-05-16T14:42:15;45;37;23
44871;PMS7003;30602;51.060;17.226;2023-05-16T14:46:15;46;37;23
44871;PMS7003;30602;51.060;17.226;2023-05-16T14:49:46;39;34;23
44871;PMS7003;30602;51.060;17.226;2023-05-16T14:53:31;49;38;24
44871;PMS7003;30602;51.060;17.226;2023-05-16T14:57:36;42;35;23
44871;PMS7003;30602;51.060;17.226;2023-05-16T15:01:25;45;38;24
44871;PMS7003;30602;51.060;17.226;2023-05-16T15:04:46;45;38;24
44871;PMS7003;30602;51.060;17.226;2023-05-16T15:08:30;48;37;24
44871;PMS7003;30602;51.060;17.226;2023-05-16T15:12:42;49;39;23
44871;PMS7003;30602;51.060;17.226;2023-05-16T15:16:32;49;36;22
44871;PMS7003;30602;51.060;17.226;2023-05-16T15:20:11;44;37;23
44871;PMS7003;30602;51.060;17.226;2023-05-16T15:23:57;40;34;22
44871;PMS7003;30602;51.060;17.226;2023-05-16T15:27:57;40;33;20
44871;PMS7003;30602;51.060;17.226;2023-05-16T15:32:02;44;35;21
44871;PMS7003;30602;51.060;17.226;2023-05-16T15:35:55;38;33;20
44871;PMS7003;30602;51.060;17.226;2023-05-16T15:39:54;41;34;21
44871;PMS7003;30602;51.060;17.226;2023-05-16T15:43:30;38;33;21
44871;PMS7003;30602;51.060;17.226;2023-05-16T15:47:44;37;33;20
44871;PMS7003;30602;51.060;17.226;2023-05-16T15:51:23;41;33;21
44871;PMS7003;30602;51.060;17.226;2023-05-16T15:55:20;35;32;20
44871;PMS7003;30602;51.060;17.226;2023-05-16T15:58:50;37;32;19
44871;PMS7003;30602;51.060;17.226;2023-05-16T16:02:31;32;29;22
44871;PMS7003;30602;51.060;17.226;2023-05-16T16:06:20;41;35;22
44871;PMS7003;30602;51.060;17.226;2023-05-16T16:10:28;41;35;21
44871;PMS7003;30602;51.060;17.226;2023-05-16T16:13:50;39;34;22
44871;PMS7003;30602;51.060;17.226;2023-05-16T16:17:16;42;36;22
44871;PMS7003;30602;51.060;17.226;2023-05-16T16:20:56;45;34;23
44871;PMS7003;30602;51.060;17.226;2023-05-16T16:24:29;39;35;22
44871;PMS7003;30602;51.060;17.226;2023-05-16T16:28:13;45;37;23
44871;PMS7003;30602;51.060;17.226;2023-05-16T16:31:31;45;39;23
44871;PMS7003;30602;51.060;17.226;2023-05-16T16:35:39;44;35;23
44871;PMS7003;30602;51.060;17.226;2023-05-16T16:39:21;44;37;24
44871;PMS7003;30602;51.060;17.226;2023-05-16T16:42:46;47;37;23
44871;PMS7003;30602;51.060;17.226;2023-05-16T16:46:45;45;37;24
44871;PMS7003;30602;51.060;17.226;2023-05-16T16:50:10;47;39;24
44871;PMS7003;30602;51.060;17.226;2023-05-16T16:54:16;50;39;25
44871;PMS7003;30602;51.060;17.226;2023-05-16T16:58:17;44;36;23
44871;PMS7003;30602;51.060;17.226;2023-05-16T17:01:38;49;38;24
44871;PMS7003;30602;51.060;17.226;2023-05-16T17:05:03;48;36;23
44871;PMS7003;30602;51.060;17.226;2023-05-16T17:08:33;50;39;26
44871;PMS7003;30602;51.060;17.226;2023-05-16T17:12:17;49;38;25
44871;PMS7003;30602;51.060;17.226;2023-05-16T17:16:05;37;33;22
44871;PMS7003;30602;51.060;17.226;2023-05-16T17:19:57;42;37;23
44871;PMS7003;30602;51.060;17.226;2023-05-16T17:23:52;45;36;23
44871;PMS7003;30602;51.060;17.226;2023-05-16T17:27:53;42;37;23
44871;PMS7003;30602;51.060;17.226;2023-05-16T17:31:37;44;38;25
44871;PMS7003;30602;51.060;17.226;2023-05-16T17:36:00;37;35;23
44871;PMS7003;30602;51.060;17.226;2023-05-16T17:39:48;44;36;23
44871;PMS7003;30602;51.060;17.226;2023-05-16T17:47:16;43;37;23
44871;PMS7003;30602;51.060;17.226;2023-05-16T17:51:20;40;35;23
44871;PMS7003;30602;51.060;17.226;2023-05-16T17:55:14;41;37;22
44871;PMS7003;30602;51.060;17.226;2023-05-16T17:58:39;41;33;23
44871;PMS7003;30602;51.060;17.226;2023-05-16T18:02:12;38;36;24
44871;PMS7003;30602;51.060;17.226;2023-05-16T18:05:38;42;35;21
44871;PMS7003;30602;51.060;17.226;2023-05-16T18:08:57;41;35;24
44871;PMS7003;30602;51.060;17.226;2023-05-16T18:12:26;47;40;24
44871;PMS7003;30602;51.060;17.226;2023-05-16T18:15:54;41;36;24
44871;PMS7003;30602;51.060;17.226;2023-05-16T18:19:46;45;37;22
44871;PMS7003;30602;51.060;17.226;2023-05-16T18:23:35;42;37;24
44871;PMS7003;30602;51.060;17.226;2023-05-16T18:27:07;41;34;21
44871;PMS7003;30602;51.060;17.226;2023-05-16T18:30:48;42;37;24
44871;PMS7003;30602;51.060;17.226;2023-05-16T18:34:44;48;37;23
44871;PMS7003;30602;51.060;17.226;2023-05-16T18:39:02;42;37;23
44871;PMS7003;30602;51.060;17.226;2023-05-16T18:42:46;47;38;24
44871;PMS7003;30602;51.060;17.226;2023-05-16T18:46:30;43;37;22
44871;PMS7003;30602;51.060;17.226;2023-05-16T18:50:31;47;38;25
44871;PMS7003;30602;51.060;17.226;2023-05-16T18:54:29;46;37;22
44871;PMS7003;30602;51.060;17.226;2023-05-16T19:02:17;48;39;24
44871;PMS7003;30602;51.060;17.226;2023-05-16T19:06:04;42;36;23
44871;PMS7003;30602;51.060;17.226;2023-05-16T19:10:01;42;36;24
44871;PMS7003;30602;51.060;17.226;2023-05-16T19:13:36;46;40;24
44871;PMS7003;30602;51.060;17.226;2023-05-16T19:21:23;43;37;24
44871;PMS7003;30602;51.060;17.226;2023-05-16T19:24:49;43;38;24
44871;PMS7003;30602;51.060;17.226;2023-05-16T19:29:20;44;38;23
44871;PMS7003;30602;51.060;17.226;2023-05-16T19:32:40;48;39;24
44871;PMS7003;30602;51.060;17.226;2023-05-16T19:37:14;51;40;25
44871;PMS7003;30602;51.060;17.226;2023-05-16T19:45:26;44;38;24
44871;PMS7003;30602;51.060;17.226;2023-05-16T19:48:47;51;39;24
44871;PMS7003;30602;51.060;17.226;2023-05-16T19:52:10;42;34;20
44871;PMS7003;30602;51.060;17.226;2023-05-16T19:55:34;47;39;24
44871;PMS7003;30602;51.060;17.226;2023-05-16T19:58:57;46;37;23
44871;PMS7003;30602;51.060;17.226;2023-05-16T20:02:30;53;43;27
44871;PMS7003;30602;51.060;17.226;2023-05-16T20:05:58;52;41;24
44871;PMS7003;30602;51.060;17.226;2023-05-16T20:09:42;56;43;27
44871;PMS7003;30602;51.060;17.226;2023-05-16T20:13:07;57;45;26
44871;PMS7003;30602;51.060;17.226;2023-05-16T20:16:43;54;43;26
44871;PMS7003;30602;51.060;17.226;2023-05-16T20:20:12;54;44;27
44871;PMS7003;30602;51.060;17.226;2023-05-16T20:23:45;55;43;25
44871;PMS7003;30602;51.060;17.226;2023-05-16T20:27:29;42;37;25
44871;PMS7003;30602;51.060;17.226;2023-05-16T20:31:20;40;35;23
44871;PMS7003;30602;51.060;17.226;2023-05-16T20:35:08;45;38;23
44871;PMS7003;30602;51.060;17.226;2023-05-16T20:42:26;52;38;23
44871;PMS7003;30602;51.060;17.226;2023-05-16T20:45:51;38;34;22
44871;PMS7003;30602;51.060;17.226;2023-05-16T20:49:17;45;37;23
44871;PMS7003;30602;51.060;17.226;2023-05-16T20:52:47;42;35;22
44871;PMS7003;30602;51.060;17.226;2023-05-16T20:56:37;37;29;20
44871;PMS7003;30602;51.060;17.226;2023-05-16T21:00:35;39;32;22
44871;PMS7003;30602;51.060;17.226;2023-05-16T21:08:18;39;34;21
44871;PMS7003;30602;51.060;17.226;2023-05-16T21:12:10;35;31;22
44871;PMS7003;30602;51.060;17.226;2023-05-16T21:15:51;39;33;22
44871;PMS7003;30602;51.060;17.226;2023-05-16T21:19:36;40;33;19
44871;PMS7003;30602;51.060;17.226;2023-05-16T21:24:06;34;31;21
44871;PMS7003;30602;51.060;17.226;2023-05-16T21:27:39;35;32;21
44871;PMS7003;30602;51.060;17.226;2023-05-16T21:31:30;43;34;21
44871;PMS7003;30602;51.060;17.226;2023-05-16T21:35:02;42;34;22
44871;PMS7003;30602;51.060;17.226;2023-05-16T21:38:35;35;30;20
44871;PMS7003;30602;51.060;17.226;2023-05-16T21:42:02;36;31;21
44871;PMS7003;30602;51.060;17.226;2023-05-16T21:45:52;43;33;21
44871;PMS7003;30602;51.060;17.226;2023-05-16T21:49:38;37;31;20
44871;PMS7003;30602;51.060;17.226;2023-05-16T21:53:47;37;32;20
44871;PMS7003;30602;51.060;17.226;2023-05-16T21:57:45;39;34;21
44871;PMS7003;30602;51.060;17.226;2023-05-16T22:01:25;36;28;19
44871;PMS7003;30602;51.060;17.226;2023-05-16T22:04:52;38;33;20
44871;PMS7003;30602;51.060;17.226;2023-05-16T22:09:00;39;31;21
44871;PMS7003;30602;51.060;17.226;2023-05-16T22:12:44;42;36;23
44871;PMS7003;30602;51.060;17.226;2023-05-16T22:16:40;39;31;20
44871;PMS7003;30602;51.060;17.226;2023-05-16T22:20:36;40;29;20
44871;PMS7003;30602;51.060;17.226;2023-05-16T22:23:56;41;33;22
44871;PMS7003;30602;51.060;17.226;2023-05-16T22:31:34;32;29;19
44871;PMS7003;30602;51.060;17.226;2023-05-16T22:38:58;37;32;22
44871;PMS7003;30602;51.060;17.226;2023-05-16T22:42:43;34;32;19
44871;PMS7003;30602;51.060;17.226;2023-05-16T22:46:25;42;32;20
44871;PMS7003;30602;51.060;17.226;2023-05-16T22:50:00;36;33;19
44871;PMS7003;30602;51.060;17.226;2023-05-16T22:53:47;30;24;16
44871;PMS7003;30602;51.060;17.226;2023-05-16T22:57:29;34;27;19
44871;PMS7003;30602;51.060;17.226;2023-05-16T23:01:08;33;29;18
44871;PMS7003;30602;51.060;17.226;2023-05-16T23:04:33;38;33;20
44871;PMS7003;30602;51.060;17.226;2023-05-16T23:08:39;38;31;21
44871;PMS7003;30602;51.060;17.226;2023-05-16T23:12:28;41;30;22
44871;PMS7003;30602;51.060;17.226;2023-05-16T23:16:09;32;27;19
44871;PMS7003;30602;51.060;17.226;2023-05-16T23:19:48;36;27;18
44871;PMS7003;30602;51.060;17.226;2023-05-16T23:23:12;34;26;17
44871;PMS7003;30602;51.060;17.226;2023-05-16T23:26:57;39;33;20
44871;PMS7003;30602;51.060;17.226;2023-05-16T23:30:53;32;28;18
44871;PMS7003;30602;51.060;17.226;2023-05-16T23:34:44;35;28;17
44871;PMS7003;30602;51.060;17.226;2023-05-16T23:38:11;33;27;16
44871;PMS7003;30602;51.060;17.226;2023-05-16T23:41:51;31;28;20
44871;PMS7003;30602;51.060;17.226;2023-05-16T23:45:46;38;30;18
44871;PMS7003;30602;51.060;17.226;2023-05-16T23:49:06;29;26;16
44871;PMS7003;30602;51.060;17.226;2023-05-16T23:52:50;34;31;21
44871;PMS7003;30602;51.060;17.226;2023-05-16T23:56:50;32;31;19
